TAF and METAR

Decoding for American and Canadian METARs and TAFs is not fully implemented.

Could not understand the following METAR

KHIB 192053Z AUTO 27008G19KT 10SM CLR 17/M02 A2956 RMK AO2 SLP010 T01671017 55008

TAF for Chisholm-Hibbing Airport

KHIB 191720Z 1918/2018 25008G15KT P6SM SKC FM200000 VRB03KT P6SM SKC FM201600 15005KT P6SM FEW200
Report created 19. okt 19:20

between 19. okt 20:00 - 20. okt 20:00

wind 8 knots from WSW (250°) with gusts up to 15 knots
Chisholm-Hibbing Airport in United States of America at 412m

Latest 5 airports